Time;durP1;ratioP1;P1;durP2;ratioP2;P2;SDS_P1;SDS_P2;PMS_P1;PMS_P2;Temp;Humidity;BMP_temperature;BMP_pressure;BME280_temperature;BME280_humidity;BME280_pressure;Samples;Min_cycle;Max_cycle;Signal;HPM_P1;HPM_P2
2022/08/14 00:01:34;;;;;;;2.97;2.40;;;25.80;41.50;;;;;;4956156;28;20572;-76
2022/08/14 00:04:00;;;;;;;2.60;2.27;;;25.80;41.50;;;;;;4954990;28;20168;-75
2022/08/14 00:06:26;;;;;;;2.93;2.27;;;25.70;41.60;;;;;;4955815;28;20176;-75
2022/08/14 00:08:52;;;;;;;4.20;2.77;;;25.70;41.70;;;;;;4955700;28;20682;-75
2022/08/14 00:11:18;;;;;;;3.03;2.40;;;25.70;42.00;;;;;;4955365;29;20526;-75
2022/08/14 00:13:47;;;;;;;3.37;2.50;;;25.70;42.40;;;;;;4938878;29;20921;-75
2022/08/14 00:16:13;;;;;;;3.40;2.63;;;25.60;42.30;;;;;;4955624;29;20177;-74
2022/08/14 00:18:40;;;;;;;3.77;2.70;;;25.60;42.80;;;;;;4956012;29;20600;-75
2022/08/14 00:21:07;;;;;;;2.57;2.00;;;25.50;42.70;;;;;;4955704;29;20962;-75
2022/08/14 00:23:33;;;;;;;3.80;2.70;;;25.50;42.70;;;;;;4939114;29;20619;-75
2022/08/14 00:25:58;;;;;;;3.03;2.73;;;25.50;43.20;;;;;;4955645;29;20988;-76
2022/08/14 00:28:28;;;;;;;3.60;3.30;;;25.50;42.90;;;;;;4955613;29;20172;-75
2022/08/14 00:30:57;;;;;;;3.23;2.80;;;25.50;43.50;;;;;;4955713;29;20257;-75
2022/08/14 00:33:27;;;;;;;3.27;2.50;;;25.40;43.30;;;;;;4955574;29;20595;-74
2022/08/14 00:35:53;;;;;;;4.20;2.97;;;25.40;43.50;;;;;;4955375;29;20683;-74
2022/08/14 00:38:20;;;;;;;3.37;3.07;;;25.40;43.40;;;;;;4955546;29;20568;-75
2022/08/14 00:40:46;;;;;;;4.23;2.80;;;25.30;43.70;;;;;;4954363;29;20603;-75
2022/08/14 00:43:12;;;;;;;3.40;2.73;;;25.30;43.80;;;;;;4937811;29;20620;-75
2022/08/14 00:45:38;;;;;;;3.47;3.17;;;25.30;43.90;;;;;;4954913;29;20575;-75
2022/08/14 00:48:04;;;;;;;3.10;2.43;;;25.20;44.40;;;;;;4955510;29;20564;-75
2022/08/14 00:50:30;;;;;;;4.90;2.67;;;25.20;44.40;;;;;;4955321;29;20588;-75
2022/08/14 00:53:02;;;;;;;4.50;3.20;;;25.20;44.40;;;;;;4954637;28;20569;-75
2022/08/14 00:55:29;;;;;;;6.00;2.83;;;25.10;44.70;;;;;;4954929;29;20175;-76
2022/08/14 01:00:42;;;;;;;3.07;2.70;;;25.10;45.00;;;;;;4953827;29;20627;-75
2022/08/14 01:03:08;;;;;;;3.63;3.33;;;25.10;44.80;;;;;;4955124;29;21262;-75
2022/08/14 01:05:34;;;;;;;4.30;3.10;;;25.10;45.00;;;;;;4954606;29;20711;-76
2022/08/14 01:08:01;;;;;;;3.77;3.47;;;25.10;45.20;;;;;;4955029;29;20922;-76
2022/08/14 01:13:17;;;;;;;4.50;3.40;;;24.90;45.70;;;;;;4954937;29;20571;-75
2022/08/14 01:15:44;;;;;;;3.53;3.23;;;24.90;46.10;;;;;;4921378;29;21150;-75
2022/08/14 01:21:02;;;;;;;3.90;3.60;;;24.90;46.40;;;;;;4954764;29;20568;-74
2022/08/14 01:23:29;;;;;;;3.70;3.30;;;24.90;46.50;;;;;;4954839;29;20631;-75
2022/08/14 01:25:57;;;;;;;3.93;3.53;;;24.90;46.80;;;;;;4953060;29;21001;-75
2022/08/14 01:28:25;;;;;;;4.10;3.43;;;24.80;47.00;;;;;;4953348;29;20614;-75
2022/08/14 01:30:57;;;;;;;4.73;3.37;;;24.80;47.30;;;;;;4954593;29;20564;-76
2022/08/14 01:33:30;;;;;;;4.20;3.80;;;24.80;47.30;;;;;;4937282;29;20568;-75
2022/08/14 01:36:00;;;;;;;4.10;3.80;;;24.70;47.40;;;;;;4937100;29;20579;-76
2022/08/14 01:38:36;;;;;;;4.53;3.57;;;24.70;48.40;;;;;;4937213;29;20654;-75
2022/08/14 01:41:07;;;;;;;4.20;3.80;;;24.70;47.60;;;;;;4954384;29;21178;-76
2022/08/14 01:43:42;;;;;;;4.80;4.40;;;24.70;48.20;;;;;;4954099;29;20640;-76
2022/08/14 01:46:10;;;;;;;3.80;3.50;;;24.70;48.60;;;;;;4936586;29;20579;-75
2022/08/14 01:48:39;;;;;;;5.40;4.90;;;24.70;48.70;;;;;;4954161;29;20679;-75
2022/08/14 01:51:07;;;;;;;4.30;3.90;;;24.70;49.30;;;;;;4954221;29;20616;-76
2022/08/14 01:53:33;;;;;;;4.43;4.03;;;24.60;49.70;;;;;;4937116;29;20915;-75
2022/08/14 01:56:03;;;;;;;3.83;3.53;;;24.60;49.30;;;;;;4953850;29;20582;-75
2022/08/14 01:58:29;;;;;;;6.80;3.77;;;24.60;49.30;;;;;;4936700;29;20672;-75
2022/08/14 02:00:57;;;;;;;6.10;3.87;;;24.60;49.60;;;;;;4937044;29;20960;-75
2022/08/14 02:03:29;;;;;;;4.43;4.03;;;24.60;50.20;;;;;;4936606;29;20632;-75
2022/08/14 02:05:58;;;;;;;4.30;3.90;;;24.50;50.40;;;;;;4935712;29;20628;-75
2022/08/14 02:08:26;;;;;;;4.17;3.77;;;24.50;50.00;;;;;;4953742;29;20574;-75
2022/08/14 02:11:15;;;;;;;4.57;4.17;;;24.50;50.30;;;;;;4936862;29;21018;-75
2022/08/14 02:13:47;;;;;;;4.50;4.10;;;24.50;50.90;;;;;;4954544;29;20623;-79
2022/08/14 02:16:16;;;;;;;4.40;3.67;;;24.50;50.70;;;;;;4953689;29;20604;-78
2022/08/14 02:18:42;;;;;;;4.73;4.30;;;24.50;50.40;;;;;;4936807;29;20608;-79
2022/08/14 02:21:11;;;;;;;4.60;3.93;;;24.50;50.60;;;;;;4937922;29;20564;-79
2022/08/14 02:23:38;;;;;;;4.67;4.20;;;24.40;50.60;;;;;;4954131;29;20635;-78
2022/08/14 02:26:16;;;;;;;4.00;3.10;;;24.40;51.00;;;;;;4952478;29;20929;-78
2022/08/14 02:28:42;;;;;;;4.43;4.13;;;24.40;51.00;;;;;;4954603;29;20618;-78
2022/08/14 02:31:08;;;;;;;4.77;4.30;;;24.40;51.10;;;;;;4936854;29;20956;-78
2022/08/14 02:33:34;;;;;;;4.93;4.03;;;24.30;51.00;;;;;;4952852;29;21009;-79
2022/08/14 02:36:02;;;;;;;5.73;4.50;;;24.30;51.10;;;;;;4952654;29;20910;-78
2022/08/14 02:38:29;;;;;;;4.90;4.50;;;24.30;51.20;;;;;;4953695;29;20580;-79
2022/08/14 02:40:57;;;;;;;4.33;3.93;;;24.20;51.20;;;;;;4953725;29;20626;-78
2022/08/14 02:43:23;;;;;;;4.30;3.90;;;24.20;51.30;;;;;;4953598;29;20686;-79
2022/08/14 02:45:48;;;;;;;5.70;3.80;;;24.20;51.40;;;;;;4953226;29;20560;-79
2022/08/14 02:48:14;;;;;;;4.87;4.37;;;24.20;51.70;;;;;;4953672;29;20560;-79
2022/08/14 02:50:41;;;;;;;5.33;4.93;;;24.10;51.70;;;;;;4953602;29;20168;-79
2022/08/14 02:53:08;;;;;;;8.07;6.70;;;24.10;51.90;;;;;;4953496;29;20599;-79
2022/08/14 02:55:34;;;;;;;10.33;8.67;;;24.00;52.10;;;;;;4952951;29;21104;-79
2022/08/14 02:58:00;;;;;;;9.43;8.60;;;24.00;52.20;;;;;;4936280;29;20595;-79
2022/08/14 03:00:28;;;;;;;10.97;8.00;;;23.90;52.60;;;;;;4952008;29;20655;-79
2022/08/14 03:02:53;;;;;;;7.87;7.17;;;23.90;52.40;;;;;;4936377;29;20600;-79
2022/08/14 03:05:19;;;;;;;7.80;7.10;;;23.90;52.30;;;;;;4953238;29;20695;-78
2022/08/14 03:07:45;;;;;;;6.00;5.20;;;23.90;52.80;;;;;;4953689;29;20175;-79
2022/08/14 03:10:10;;;;;;;5.43;4.90;;;23.80;53.20;;;;;;4953387;29;20200;-79
2022/08/14 03:12:36;;;;;;;5.83;5.33;;;23.80;52.70;;;;;;4953449;29;20200;-78
2022/08/14 03:15:08;;;;;;;5.63;5.13;;;23.80;52.90;;;;;;4951840;28;20268;-78
2022/08/14 03:17:34;;;;;;;5.90;5.40;;;23.80;53.00;;;;;;4957030;29;20181;-78
2022/08/14 03:20:00;;;;;;;4.40;4.00;;;23.70;53.10;;;;;;4956015;29;21269;-77
2022/08/14 03:22:27;;;;;;;4.63;4.10;;;23.80;53.40;;;;;;4957168;29;20585;-79
2022/08/14 03:24:52;;;;;;;5.60;4.50;;;23.70;54.00;;;;;;4956805;29;20975;-78
2022/08/14 03:27:18;;;;;;;6.73;4.50;;;23.70;53.80;;;;;;4940107;29;20572;-78
2022/08/14 03:29:44;;;;;;;4.57;4.17;;;23.70;53.90;;;;;;4957038;29;20838;-78
2022/08/14 03:32:11;;;;;;;4.00;3.70;;;23.60;53.80;;;;;;4956972;29;20618;-78
2022/08/14 03:34:37;;;;;;;6.50;4.60;;;23.60;54.20;;;;;;4956501;29;20175;-78
2022/08/14 03:37:03;;;;;;;4.90;4.50;;;23.60;54.00;;;;;;4939749;29;20568;-78
2022/08/14 03:39:29;;;;;;;5.10;4.70;;;23.60;54.30;;;;;;4939610;29;20599;-78
2022/08/14 03:41:55;;;;;;;6.60;4.70;;;23.50;54.20;;;;;;4956693;29;20176;-78
2022/08/14 03:44:24;;;;;;;4.87;4.47;;;23.50;54.60;;;;;;4956917;29;20555;-79
2022/08/14 03:46:50;;;;;;;4.40;4.00;;;23.50;54.70;;;;;;4956502;29;20573;-78
2022/08/14 03:49:21;;;;;;;5.43;4.83;;;23.50;54.60;;;;;;4956813;29;20599;-78
2022/08/14 03:51:46;;;;;;;4.30;4.00;;;23.50;54.90;;;;;;4939378;29;20591;-78
2022/08/14 03:54:12;;;;;;;4.40;4.10;;;23.50;54.70;;;;;;4956652;29;20568;-79
2022/08/14 03:56:43;;;;;;;4.60;4.20;;;23.50;55.00;;;;;;4939049;29;20195;-78
2022/08/14 03:59:12;;;;;;;6.83;4.50;;;23.40;55.00;;;;;;4923500;29;20623;-79
2022/08/14 04:01:39;;;;;;;4.63;4.23;;;23.40;55.20;;;;;;4956602;29;20579;-78
2022/08/14 04:04:06;;;;;;;4.97;4.57;;;23.40;55.70;;;;;;4955374;29;20576;-78
2022/08/14 04:06:33;;;;;;;4.90;4.43;;;23.40;55.90;;;;;;4956150;29;20595;-79
2022/08/14 04:08:59;;;;;;;4.80;4.40;;;23.40;56.20;;;;;;4939277;29;20604;-79
2022/08/14 04:11:25;;;;;;;4.80;4.40;;;23.40;56.10;;;;;;4955400;29;20587;-78
2022/08/14 04:13:51;;;;;;;4.97;4.47;;;23.40;56.10;;;;;;4939476;29;20715;-78
2022/08/14 04:16:20;;;;;;;5.30;4.80;;;23.40;56.40;;;;;;4939455;29;20583;-80
2022/08/14 04:18:49;;;;;;;4.60;3.93;;;23.30;56.60;;;;;;4957764;29;20632;-76
2022/08/14 04:21:16;;;;;;;4.10;3.70;;;23.30;56.70;;;;;;4939384;29;20576;-79
2022/08/14 04:23:44;;;;;;;4.67;4.27;;;23.30;56.90;;;;;;4938925;29;20572;-79
2022/08/14 04:26:12;;;;;;;4.87;4.50;;;23.30;57.00;;;;;;4956147;29;20591;-79
2022/08/14 04:28:39;;;;;;;5.43;4.90;;;23.30;57.50;;;;;;4955118;28;20682;-79
2022/08/14 04:31:05;;;;;;;5.00;4.50;;;23.30;57.50;;;;;;4956350;29;20567;-79
2022/08/14 04:33:31;;;;;;;5.40;4.90;;;23.30;58.50;;;;;;4957249;29;21163;-78
2022/08/14 04:35:57;;;;;;;5.30;4.90;;;23.30;58.20;;;;;;4955762;29;20699;-78
2022/08/14 04:43:53;;;;;;;5.50;5.10;;;23.30;58.60;;;;;;4938567;29;21241;-79
2022/08/14 04:46:22;;;;;;;4.80;4.40;;;23.30;58.70;;;;;;4954940;28;20606;-79
2022/08/14 04:48:49;;;;;;;5.70;5.20;;;23.30;59.20;;;;;;4954246;28;20604;-79
2022/08/14 04:51:17;;;;;;;4.63;3.97;;;23.30;59.20;;;;;;4955829;29;20611;-80
2022/08/14 04:53:45;;;;;;;4.57;4.17;;;23.30;59.20;;;;;;4954215;29;20630;-79
2022/08/14 04:56:13;;;;;;;5.17;4.77;;;23.30;59.40;;;;;;4955347;29;20560;-79
2022/08/14 04:58:41;;;;;;;5.30;4.80;;;23.30;59.70;;;;;;4954186;29;21003;-78
2022/08/14 05:01:08;;;;;;;4.70;4.30;;;23.40;60.80;;;;;;4938466;29;20575;-79
2022/08/14 05:03:35;;;;;;;7.00;4.97;;;23.40;60.30;;;;;;4955209;29;20572;-79
2022/08/14 05:06:05;;;;;;;5.37;4.87;;;23.40;61.00;;;;;;4954960;29;20568;-78
2022/08/14 05:08:32;;;;;;;6.10;4.70;;;23.40;61.70;;;;;;4938080;29;20568;-79
2022/08/14 05:10:59;;;;;;;6.60;5.83;;;23.40;61.60;;;;;;4955386;29;20667;-80
2022/08/14 05:13:27;;;;;;;4.73;4.33;;;23.50;62.40;;;;;;4955298;29;20677;-80
2022/08/14 05:15:56;;;;;;;5.37;4.87;;;23.50;62.20;;;;;;4955213;29;20937;-80
2022/08/14 05:18:24;;;;;;;5.33;4.67;;;23.50;62.40;;;;;;4955425;29;20569;-79
2022/08/14 05:20:54;;;;;;;5.43;4.93;;;23.60;62.80;;;;;;4955347;29;20564;-79
2022/08/14 05:23:23;;;;;;;5.47;4.83;;;23.60;62.90;;;;;;4955526;29;20596;-79
2022/08/14 05:25:53;;;;;;;7.50;5.10;;;23.70;63.90;;;;;;4954027;29;20667;-78
2022/08/14 05:28:22;;;;;;;4.53;4.17;;;23.70;64.70;;;;;;4955083;29;20581;-79
2022/08/14 05:30:50;;;;;;;7.43;5.00;;;23.70;64.10;;;;;;4955063;28;21167;-79
2022/08/14 05:33:18;;;;;;;6.10;5.50;;;23.70;64.50;;;;;;4937610;29;21186;-79
2022/08/14 05:35:45;;;;;;;6.00;5.43;;;23.80;65.60;;;;;;4953382;29;21194;-79
2022/08/14 05:38:13;;;;;;;6.10;5.50;;;23.80;65.80;;;;;;4938166;28;20909;-79
2022/08/14 05:40:40;;;;;;;5.13;4.63;;;23.80;66.10;;;;;;4937680;29;20584;-79
2022/08/14 05:43:06;;;;;;;5.30;3.80;;;23.80;67.10;;;;;;4954986;29;21434;-80
2022/08/14 05:45:34;;;;;;;5.40;4.90;;;23.90;67.40;;;;;;4954477;29;20576;-78
2022/08/14 05:48:04;;;;;;;5.40;5.00;;;23.90;67.40;;;;;;4937725;29;21190;-79
2022/08/14 05:50:32;;;;;;;6.13;5.53;;;23.90;67.80;;;;;;4954888;29;20603;-79
2022/08/14 05:52:58;;;;;;;5.80;5.30;;;24.00;67.90;;;;;;4937317;29;20727;-79
2022/08/14 05:55:24;;;;;;;5.03;4.63;;;24.10;68.10;;;;;;4921164;29;20686;-79
2022/08/14 05:57:54;;;;;;;6.00;5.50;;;24.20;68.50;;;;;;4954827;29;20188;-79
2022/08/14 06:00:23;;;;;;;5.83;5.40;;;24.20;68.60;;;;;;4954255;29;20604;-78
2022/08/14 06:02:49;;;;;;;5.80;5.40;;;24.30;68.90;;;;;;4954589;29;20568;-79
2022/08/14 06:05:14;;;;;;;5.70;5.20;;;24.40;69.20;;;;;;4952711;29;20572;-79
2022/08/14 06:07:40;;;;;;;6.10;5.60;;;24.50;69.40;;;;;;4953150;29;20207;-79
2022/08/14 06:10:08;;;;;;;5.90;5.27;;;24.60;69.70;;;;;;4953100;28;20615;-79
2022/08/14 06:12:34;;;;;;;7.13;5.30;;;24.60;70.20;;;;;;4953718;28;20250;-80
2022/08/14 06:14:59;;;;;;;9.97;5.57;;;24.80;70.30;;;;;;4952563;29;20675;-79
2022/08/14 06:17:25;;;;;;;6.00;5.60;;;24.90;70.10;;;;;;4957456;29;20688;-79
2022/08/14 06:19:51;;;;;;;6.07;5.57;;;24.90;70.90;;;;;;4955477;29;20188;-79
2022/08/14 06:22:18;;;;;;;5.50;4.97;;;25.10;70.60;;;;;;4955413;29;20604;-79
2022/08/14 06:24:43;;;;;;;6.30;5.70;;;25.20;71.00;;;;;;4936902;29;20581;-79
2022/08/14 06:27:09;;;;;;;6.10;5.60;;;25.60;70.80;;;;;;4953131;29;20633;-79
2022/08/14 06:29:36;;;;;;;6.23;5.70;;;26.10;71.20;;;;;;4953242;28;20200;-79
2022/08/14 06:32:02;;;;;;;5.67;5.17;;;26.80;71.60;;;;;;4952314;28;20187;-79
2022/08/14 06:34:28;;;;;;;5.77;5.37;;;27.70;71.20;;;;;;4928645;29;21141;-78
2022/08/14 06:36:57;;;;;;;4.87;4.37;;;28.40;69.70;;;;;;4954376;29;20642;-78
2022/08/14 06:39:23;;;;;;;4.50;4.10;;;29.20;68.80;;;;;;4954605;29;20192;-79
2022/08/14 06:41:49;;;;;;;5.03;4.57;;;30.10;66.70;;;;;;4953125;29;20622;-79
2022/08/14 06:44:15;;;;;;;5.07;4.70;;;30.80;64.50;;;;;;4954138;29;20568;-79
2022/08/14 06:46:41;;;;;;;5.57;5.17;;;31.40;61.70;;;;;;4953926;29;20211;-79
2022/08/14 06:49:07;;;;;;;4.50;4.10;;;32.00;59.40;;;;;;4953140;29;21207;-78
2022/08/14 06:51:34;;;;;;;4.90;4.50;;;32.70;58.90;;;;;;4940962;29;20598;-79
2022/08/14 06:54:00;;;;;;;4.90;4.50;;;33.60;57.40;;;;;;4943676;29;20217;-79
2022/08/14 06:56:26;;;;;;;5.17;4.77;;;34.10;54.50;;;;;;4942955;29;20598;-79
2022/08/14 06:58:52;;;;;;;4.37;3.97;;;34.50;54.00;;;;;;4960520;29;20600;-79
2022/08/14 07:06:48;;;;;;;3.43;3.07;;;35.60;50.00;;;;;;4960539;29;20571;-79
2022/08/14 07:09:14;;;;;;;3.60;3.30;;;36.00;49.80;;;;;;4960470;28;20642;-80
2022/08/14 07:11:41;;;;;;;4.40;4.03;;;36.50;48.90;;;;;;4960688;29;21015;-79
2022/08/14 07:14:07;;;;;;;4.73;3.90;;;36.90;47.30;;;;;;4961396;28;20623;-79
2022/08/14 07:16:32;;;;;;;3.80;3.50;;;36.90;46.30;;;;;;4963943;29;20578;-79
2022/08/14 07:18:58;;;;;;;4.10;3.80;;;36.80;45.00;;;;;;4964082;29;20188;-79
2022/08/14 07:21:24;;;;;;;4.17;3.77;;;36.90;45.40;;;;;;4964891;28;20579;-79
2022/08/14 07:23:50;;;;;;;3.93;3.63;;;37.00;44.60;;;;;;4948375;28;20180;-79
2022/08/14 07:26:16;;;;;;;4.03;3.73;;;36.90;44.00;;;;;;4954326;29;20194;-78
2022/08/14 07:28:41;;;;;;;3.90;3.60;;;37.00;44.30;;;;;;4968731;29;20557;-79
2022/08/14 07:31:09;;;;;;;3.73;3.43;;;37.20;43.90;;;;;;4964180;28;20599;-81
2022/08/14 07:33:47;;;;;;;3.90;3.60;;;37.30;43.50;;;;;;4948459;29;20627;-81
2022/08/14 07:36:14;;;;;;;3.80;3.50;;;37.30;42.80;;;;;;4964760;28;20567;-82
2022/08/14 07:38:40;;;;;;;3.70;3.40;;;37.60;43.40;;;;;;4964287;28;20988;-81
2022/08/14 07:41:08;;;;;;;4.40;4.00;;;38.00;42.70;;;;;;4965196;28;21206;-81
2022/08/14 07:43:35;;;;;;;5.53;4.53;;;38.00;41.90;;;;;;4940345;29;20676;-81
2022/08/14 07:46:02;;;;;;;4.13;3.30;;;38.00;41.40;;;;;;4924261;29;20577;-76
2022/08/14 07:48:28;;;;;;;4.03;3.73;;;38.00;41.40;;;;;;4945102;29;20599;-76
2022/08/14 07:50:54;;;;;;;3.73;3.43;;;38.10;41.10;;;;;;4959787;28;20592;-77
2022/08/14 07:53:20;;;;;;;3.33;3.00;;;38.30;41.40;;;;;;4959664;28;21251;-76
2022/08/14 07:55:47;;;;;;;4.30;4.00;;;38.70;41.50;;;;;;4959425;28;20175;-77
2022/08/14 07:58:14;;;;;;;3.57;3.27;;;39.00;40.30;;;;;;4959972;28;20599;-76
2022/08/14 08:00:41;;;;;;;18.10;4.07;;;39.00;39.20;;;;;;4958890;28;20594;-76
2022/08/14 08:03:11;;;;;;;4.30;4.00;;;38.90;38.80;;;;;;4960654;28;21119;-76
2022/08/14 08:05:38;;;;;;;3.70;3.40;;;38.70;38.50;;;;;;4957929;29;20792;-78
2022/08/14 08:08:06;;;;;;;4.53;4.23;;;38.40;38.60;;;;;;4957009;28;20943;-78
2022/08/14 08:10:33;;;;;;;4.03;3.57;;;38.10;38.50;;;;;;4939756;28;20599;-76
2022/08/14 08:13:11;;;;;;;4.47;3.40;;;37.90;38.80;;;;;;4954000;28;20829;-78
2022/08/14 08:15:40;;;;;;;3.77;3.47;;;37.80;39.20;;;;;;4981819;22;20670;-80
2022/08/14 08:18:07;;;;;;;3.73;3.43;;;37.70;39.40;;;;;;4939322;29;20568;-78
2022/08/14 08:20:40;;;;;;;4.10;3.80;;;37.50;39.00;;;;;;4939577;29;20930;-78
2022/08/14 08:23:09;;;;;;;4.10;3.80;;;37.50;39.40;;;;;;4960928;29;20587;-78
2022/08/14 08:25:37;;;;;;;3.90;3.60;;;37.60;39.90;;;;;;4957048;29;21184;-78
2022/08/14 08:28:12;;;;;;;3.60;3.30;;;37.60;39.50;;;;;;4941161;29;20567;-80
2022/08/14 08:30:50;;;;;;;4.27;3.87;;;37.70;39.80;;;;;;4952460;28;20600;-82
2022/08/14 08:33:18;;;;;;;3.57;3.27;;;38.10;40.00;;;;;;4957113;28;21098;-81
2022/08/14 08:35:44;;;;;;;3.70;3.40;;;38.70;40.30;;;;;;4959113;29;20706;-83
2022/08/14 08:38:13;;;;;;;5.40;3.03;;;39.30;39.50;;;;;;4961732;29;20571;-82
2022/08/14 08:40:41;;;;;;;3.97;3.53;;;39.30;38.20;;;;;;4960465;29;20580;-81
2022/08/14 08:43:16;;;;;;;3.90;3.60;;;39.30;37.80;;;;;;4944854;29;21182;-81
2022/08/14 08:45:42;;;;;;;4.40;4.00;;;39.30;37.00;;;;;;4958548;29;21312;-82
2022/08/14 08:48:08;;;;;;;3.60;3.30;;;39.10;37.20;;;;;;4960925;29;20575;-82
2022/08/14 08:50:36;;;;;;;3.60;3.30;;;39.00;37.10;;;;;;4926915;29;20612;-82
2022/08/14 08:53:08;;;;;;;3.60;3.30;;;38.80;37.20;;;;;;4963103;29;20985;-82
2022/08/14 08:55:39;;;;;;;3.27;2.97;;;38.80;36.80;;;;;;4959770;28;20663;-82
2022/08/14 08:58:08;;;;;;;3.87;3.40;;;38.80;37.30;;;;;;4958084;29;20579;-82
2022/08/14 09:00:37;;;;;;;3.43;3.20;;;38.70;37.10;;;;;;4962665;29;20564;-82
2022/08/14 09:03:04;;;;;;;4.03;3.37;;;38.70;37.10;;;;;;4929209;29;20591;-82
2022/08/14 09:05:32;;;;;;;4.00;3.70;;;38.90;37.40;;;;;;4962727;29;20731;-82
2022/08/14 09:08:18;;;;;;;6.47;3.30;;;39.00;37.00;;;;;;4945036;29;20584;-82
2022/08/14 09:10:44;;;;;;;3.13;2.93;;;39.40;37.10;;;;;;4943416;29;20587;-83
2022/08/14 09:13:14;;;;;;;3.37;3.07;;;39.80;37.40;;;;;;4959126;28;20623;-83
2022/08/14 09:15:42;;;;;;;2.93;2.73;;;40.30;37.40;;;;;;4930101;29;20634;-83
2022/08/14 09:18:09;;;;;;;3.80;2.97;;;40.80;36.20;;;;;;4957836;29;20575;-83
2022/08/14 09:20:37;;;;;;;3.00;2.80;;;41.20;36.20;;;;;;4955995;29;21484;-82
2022/08/14 09:23:04;;;;;;;3.97;3.33;;;41.60;35.60;;;;;;4948811;29;20595;-83
2022/08/14 09:25:30;;;;;;;3.97;2.90;;;41.80;35.10;;;;;;4958024;28;20620;-82
2022/08/14 09:27:56;;;;;;;2.53;2.33;;;42.00;35.20;;;;;;4922716;29;20611;-81
2022/08/14 09:30:21;;;;;;;3.27;2.97;;;42.50;34.60;;;;;;4938312;29;20580;-82
2022/08/14 09:33:02;;;;;;;2.60;2.40;;;42.90;35.00;;;;;;4956957;29;20204;-81
2022/08/14 09:35:47;;;;;;;2.20;2.00;;;43.50;34.40;;;;;;4941748;29;20196;-82
2022/08/14 09:38:35;;;;;;;3.40;2.43;;;44.10;33.90;;;;;;4925942;29;20594;-82
2022/08/14 09:41:20;;;;;;;3.33;2.47;;;44.70;32.90;;;;;;4957989;29;21170;-82
2022/08/14 09:43:56;;;;;;;3.80;2.70;;;44.60;30.90;;;;;;4956466;29;20576;-82
2022/08/14 09:46:26;;;;;;;2.67;2.47;;;44.50;31.50;;;;;;4948647;29;20982;-83
2022/08/14 09:49:04;;;;;;;3.23;2.77;;;44.50;31.20;;;;;;4937532;29;20591;-84
2022/08/14 09:51:31;;;;;;;2.57;1.80;;;44.80;30.70;;;;;;4936633;29;20946;-83
2022/08/14 09:54:09;;;;;;;2.87;1.97;;;45.00;31.60;;;;;;4970212;29;20572;-83
2022/08/14 09:56:46;;;;;;;2.40;2.20;;;45.00;30.00;;;;;;4976958;29;20604;-83
2022/08/14 09:59:21;;;;;;;1.90;1.80;;;45.20;29.60;;;;;;4963749;29;20598;-82
2022/08/14 10:01:48;;;;;;;1.93;1.83;;;45.00;29.60;;;;;;4959382;29;20583;-82
2022/08/14 10:04:27;;;;;;;1.90;1.80;;;45.00;29.50;;;;;;4960936;28;20635;-82
2022/08/14 10:06:53;;;;;;;2.30;2.10;;;44.70;28.20;;;;;;4961312;29;21161;-83
2022/08/14 10:09:20;;;;;;;2.13;1.80;;;44.30;28.30;;;;;;4942442;29;20662;-83
2022/08/14 10:11:58;;;;;;;3.10;1.63;;;44.00;28.30;;;;;;4957460;29;20580;-83
2022/08/14 10:14:28;;;;;;;2.90;1.93;;;44.00;29.00;;;;;;4958925;28;20654;-82
2022/08/14 10:16:57;;;;;;;2.47;1.97;;;44.10;28.80;;;;;;4955024;28;20620;-83
2022/08/14 10:19:29;;;;;;;2.00;1.80;;;44.10;28.50;;;;;;4954899;29;20568;-83
2022/08/14 10:22:11;;;;;;;8.87;1.73;;;44.10;28.70;;;;;;4953917;29;20579;-82
2022/08/14 10:24:39;;;;;;;2.00;1.60;;;44.20;28.90;;;;;;4955818;28;20601;-82
2022/08/14 10:27:17;;;;;;;3.50;2.10;;;44.50;28.80;;;;;;4957852;28;20572;-82
2022/08/14 10:29:49;;;;;;;2.17;1.97;;;44.80;28.50;;;;;;4956591;29;20941;-82
2022/08/14 10:32:15;;;;;;;2.53;1.97;;;44.90;28.10;;;;;;4956767;28;20571;-82
2022/08/14 10:34:41;;;;;;;2.03;1.83;;;45.00;28.00;;;;;;4955320;28;20575;-83
2022/08/14 10:37:18;;;;;;;2.00;1.80;;;45.20;28.40;;;;;;4958047;28;20584;-82
2022/08/14 10:39:59;;;;;;;2.37;2.17;;;45.40;27.80;;;;;;4962017;29;20572;-82
2022/08/14 10:42:35;;;;;;;2.13;1.70;;;45.10;27.30;;;;;;4941778;29;20620;-82
2022/08/14 10:45:01;;;;;;;2.27;1.90;;;45.10;27.50;;;;;;4957996;29;20683;-80
2022/08/14 10:47:38;;;;;;;1.63;1.50;;;45.00;27.30;;;;;;4966427;28;20580;-80
2022/08/14 10:50:06;;;;;;;1.70;1.40;;;44.90;27.30;;;;;;4962481;29;20188;-82
2022/08/14 10:52:33;;;;;;;1.80;1.40;;;44.80;26.80;;;;;;4961320;28;20576;-82
2022/08/14 10:55:33;;;;;;;1.47;1.20;;;44.40;26.60;;;;;;4962053;28;20604;-81
2022/08/14 10:57:59;;;;;;;2.40;1.37;;;44.40;27.20;;;;;;4959188;29;20572;-81
2022/08/14 11:00:27;;;;;;;5.17;2.60;;;44.60;27.10;;;;;;4943285;29;20668;-81
2022/08/14 11:02:59;;;;;;;1.90;1.50;;;44.60;27.00;;;;;;4938831;29;20624;-83
2022/08/14 11:05:37;;;;;;;1.60;1.33;;;44.50;27.20;;;;;;4944451;29;20630;-81
2022/08/14 11:08:03;;;;;;;2.00;1.70;;;44.70;27.50;;;;;;4964646;29;20571;-81
2022/08/14 11:10:55;;;;;;;1.90;1.50;;;44.80;27.00;;;;;;4954266;29;20577;-82
2022/08/14 11:13:28;;;;;;;1.83;1.50;;;44.90;26.70;;;;;;4947693;29;20614;-81
2022/08/14 11:15:57;;;;;;;1.80;1.50;;;45.10;26.80;;;;;;4965459;29;20647;-81
2022/08/14 11:18:23;;;;;;;2.23;2.03;;;45.30;27.00;;;;;;4950292;29;20599;-82
2022/08/14 11:20:54;;;;;;;2.47;1.60;;;45.50;26.60;;;;;;4967171;29;20668;-81
2022/08/14 11:23:25;;;;;;;2.13;1.23;;;45.50;25.60;;;;;;4957817;29;20595;-82
2022/08/14 11:25:51;;;;;;;2.57;1.20;;;45.20;26.10;;;;;;4939290;29;20630;-80
2022/08/14 11:28:24;;;;;;;2.50;1.93;;;45.20;25.80;;;;;;4966602;29;20612;-81
2022/08/14 11:30:50;;;;;;;2.53;1.53;;;44.80;25.00;;;;;;4969265;28;20599;-81
2022/08/14 11:33:25;;;;;;;1.60;1.37;;;44.20;25.20;;;;;;4973132;29;20572;-82
2022/08/14 11:35:53;;;;;;;1.90;1.70;;;43.80;25.40;;;;;;4971164;29;20610;-81
2022/08/14 11:38:22;;;;;;;1.80;1.60;;;43.60;25.40;;;;;;4972000;28;20602;-82
2022/08/14 11:40:48;;;;;;;4.23;2.00;;;43.10;25.30;;;;;;4955574;29;20592;-81
2022/08/14 11:43:15;;;;;;;1.60;1.30;;;42.60;25.70;;;;;;4969736;29;20622;-82
2022/08/14 11:45:47;;;;;;;1.60;1.23;;;42.40;26.30;;;;;;4970277;29;20619;-81
2022/08/14 11:48:18;;;;;;;1.80;1.30;;;42.40;26.40;;;;;;4968203;29;20560;-81
2022/08/14 11:50:47;;;;;;;1.70;1.50;;;42.50;26.80;;;;;;4945361;29;20667;-81
2022/08/14 11:53:19;;;;;;;2.43;1.40;;;42.60;26.70;;;;;;4963164;28;20610;-81
2022/08/14 11:55:45;;;;;;;4.13;1.97;;;42.60;26.60;;;;;;4943120;29;20718;-81
2022/08/14 11:58:12;;;;;;;1.70;1.40;;;42.60;26.40;;;;;;4959870;29;20993;-79
2022/08/14 12:00:48;;;;;;;1.90;1.40;;;42.30;26.40;;;;;;4955691;29;20683;-79
2022/08/14 12:03:15;;;;;;;1.87;1.40;;;42.20;26.40;;;;;;4962486;29;20976;-79
2022/08/14 12:05:41;;;;;;;1.60;1.40;;;42.20;26.60;;;;;;4958420;29;20615;-79
2022/08/14 12:08:09;;;;;;;2.00;1.60;;;42.10;26.40;;;;;;4939184;29;21358;-79
2022/08/14 12:10:40;;;;;;;1.50;1.07;;;41.90;26.30;;;;;;4954379;29;20564;-79
2022/08/14 12:13:17;;;;;;;1.70;1.20;;;41.80;26.90;;;;;;4955272;29;20583;-80
2022/08/14 12:15:48;;;;;;;1.70;1.20;;;41.60;26.50;;;;;;4954625;29;20673;-79
2022/08/14 12:18:14;;;;;;;1.70;1.20;;;41.60;26.70;;;;;;4937964;29;20971;-80
2022/08/14 12:20:42;;;;;;;1.50;1.13;;;41.60;26.90;;;;;;4937962;29;20572;-79
2022/08/14 12:23:22;;;;;;;1.60;1.30;;;41.60;27.00;;;;;;4955020;29;20619;-79
2022/08/14 12:25:49;;;;;;;2.43;1.13;;;41.70;26.90;;;;;;4922371;29;20969;-79
2022/08/14 12:28:15;;;;;;;1.70;1.20;;;41.80;26.90;;;;;;4938844;29;20572;-80
2022/08/14 12:30:44;;;;;;;1.50;1.00;;;41.80;27.50;;;;;;4956017;29;20620;-79
2022/08/14 12:33:24;;;;;;;1.63;1.20;;;41.90;27.00;;;;;;4939166;29;20578;-80
2022/08/14 12:35:52;;;;;;;1.43;1.10;;;41.90;26.90;;;;;;4956560;29;21000;-79
2022/08/14 12:38:18;;;;;;;2.20;1.33;;;41.80;26.20;;;;;;4929541;29;21206;-79
2022/08/14 12:40:50;;;;;;;2.10;1.50;;;41.50;26.30;;;;;;4956394;29;20572;-79
2022/08/14 12:43:18;;;;;;;1.70;1.60;;;41.40;26.60;;;;;;4961199;29;20630;-79
2022/08/14 12:45:55;;;;;;;2.63;1.63;;;41.20;26.60;;;;;;4963543;29;20684;-79
2022/08/14 12:48:22;;;;;;;3.33;1.53;;;40.60;26.60;;;;;;4945498;29;20576;-79
2022/08/14 12:50:52;;;;;;;2.33;1.50;;;40.20;26.70;;;;;;4963089;29;20907;-80
2022/08/14 12:53:19;;;;;;;2.13;1.40;;;39.90;26.90;;;;;;4946530;29;20607;-78
2022/08/14 12:56:00;;;;;;;1.80;1.50;;;39.40;26.90;;;;;;4955705;29;21028;-79
2022/08/14 12:58:28;;;;;;;2.30;1.90;;;38.90;27.20;;;;;;4955815;29;20674;-78
2022/08/14 13:00:58;;;;;;;2.10;1.77;;;38.50;27.60;;;;;;4955922;29;21012;-78
2022/08/14 13:03:25;;;;;;;2.80;1.70;;;38.10;27.70;;;;;;4938523;29;20675;-79
2022/08/14 13:05:52;;;;;;;2.67;2.13;;;37.70;28.10;;;;;;4955136;29;20605;-79
2022/08/14 13:08:18;;;;;;;1.93;1.70;;;37.50;28.30;;;;;;4954048;28;20614;-79
2022/08/14 13:10:46;;;;;;;2.10;1.80;;;37.30;28.40;;;;;;4956078;29;20575;-79
2022/08/14 13:13:18;;;;;;;2.40;2.20;;;37.30;28.80;;;;;;4956264;29;20572;-79